sensor_id;sensor_type;location;lat;lon;timestamp;P1;durP1;ratioP1;P2;durP2;ratioP2
18867;SDS011;9563;49.240;9.088;2022-08-21T00:01:24;4.28;;;2.00;;
18867;SDS011;9563;49.240;9.088;2022-08-21T00:03:54;3.15;;;2.00;;
18867;SDS011;9563;49.240;9.088;2022-08-21T00:06:21;4.82;;;2.55;;
18867;SDS011;9563;49.240;9.088;2022-08-21T00:08:49;5.03;;;1.98;;
18867;SDS011;9563;49.240;9.088;2022-08-21T00:11:15;5.10;;;2.10;;
18867;SDS011;9563;49.240;9.088;2022-08-21T00:13:44;4.53;;;2.17;;
18867;SDS011;9563;49.240;9.088;2022-08-21T00:16:11;4.43;;;2.60;;
18867;SDS011;9563;49.240;9.088;2022-08-21T00:18:38;3.67;;;2.15;;
18867;SDS011;9563;49.240;9.088;2022-08-21T00:21:05;4.40;;;2.22;;
18867;SDS011;9563;49.240;9.088;2022-08-21T00:23:33;3.58;;;2.22;;
18867;SDS011;9563;49.240;9.088;2022-08-21T00:26:00;3.63;;;2.13;;
18867;SDS011;9563;49.240;9.088;2022-08-21T00:28:27;3.47;;;2.20;;
18867;SDS011;9563;49.240;9.088;2022-08-21T00:30:55;4.30;;;2.33;;
18867;SDS011;9563;49.240;9.088;2022-08-21T00:33:22;3.47;;;2.33;;
18867;SDS011;9563;49.240;9.088;2022-08-21T00:35:49;7.20;;;2.20;;
18867;SDS011;9563;49.240;9.088;2022-08-21T00:38:16;3.60;;;2.03;;
18867;SDS011;9563;49.240;9.088;2022-08-21T00:40:45;6.70;;;2.30;;
18867;SDS011;9563;49.240;9.088;2022-08-21T00:43:15;3.67;;;2.20;;
18867;SDS011;9563;49.240;9.088;2022-08-21T00:45:44;5.18;;;2.72;;
18867;SDS011;9563;49.240;9.088;2022-08-21T00:48:13;5.47;;;2.33;;
18867;SDS011;9563;49.240;9.088;2022-08-21T00:50:41;5.10;;;2.72;;
18867;SDS011;9563;49.240;9.088;2022-08-21T00:53:12;8.13;;;2.85;;
18867;SDS011;9563;49.240;9.088;2022-08-21T00:55:39;4.10;;;2.47;;
18867;SDS011;9563;49.240;9.088;2022-08-21T00:58:08;5.30;;;2.45;;
18867;SDS011;9563;49.240;9.088;2022-08-21T01:00:38;4.10;;;2.40;;
18867;SDS011;9563;49.240;9.088;2022-08-21T01:03:08;5.55;;;2.70;;
18867;SDS011;9563;49.240;9.088;2022-08-21T01:05:40;4.30;;;2.40;;
18867;SDS011;9563;49.240;9.088;2022-08-21T01:08:07;4.00;;;2.30;;
18867;SDS011;9563;49.240;9.088;2022-08-21T01:10:36;7.55;;;2.80;;
18867;SDS011;9563;49.240;9.088;2022-08-21T01:13:04;5.72;;;2.65;;
18867;SDS011;9563;49.240;9.088;2022-08-21T01:15:33;3.45;;;2.20;;
18867;SDS011;9563;49.240;9.088;2022-08-21T01:18:03;3.97;;;2.40;;
18867;SDS011;9563;49.240;9.088;2022-08-21T01:20:32;4.45;;;2.70;;
18867;SDS011;9563;49.240;9.088;2022-08-21T01:23:01;4.20;;;2.72;;
18867;SDS011;9563;49.240;9.088;2022-08-21T01:25:29;4.30;;;2.90;;
18867;SDS011;9563;49.240;9.088;2022-08-21T01:27:56;4.57;;;3.28;;
18867;SDS011;9563;49.240;9.088;2022-08-21T01:30:27;3.45;;;3.00;;
18867;SDS011;9563;49.240;9.088;2022-08-21T01:32:54;7.68;;;2.92;;
18867;SDS011;9563;49.240;9.088;2022-08-21T01:35:21;5.80;;;3.08;;
18867;SDS011;9563;49.240;9.088;2022-08-21T01:37:48;6.60;;;2.97;;
18867;SDS011;9563;49.240;9.088;2022-08-21T01:40:17;5.75;;;2.65;;
18867;SDS011;9563;49.240;9.088;2022-08-21T01:42:45;6.20;;;2.95;;
18867;SDS011;9563;49.240;9.088;2022-08-21T01:45:13;6.80;;;3.15;;
18867;SDS011;9563;49.240;9.088;2022-08-21T01:47:41;3.55;;;2.50;;
18867;SDS011;9563;49.240;9.088;2022-08-21T01:50:09;6.03;;;3.22;;
18867;SDS011;9563;49.240;9.088;2022-08-21T01:52:39;4.95;;;2.92;;
18867;SDS011;9563;49.240;9.088;2022-08-21T01:55:07;6.25;;;3.40;;
18867;SDS011;9563;49.240;9.088;2022-08-21T01:57:37;4.00;;;3.13;;
18867;SDS011;9563;49.240;9.088;2022-08-21T02:00:06;7.32;;;3.20;;
18867;SDS011;9563;49.240;9.088;2022-08-21T02:02:36;4.25;;;2.97;;
18867;SDS011;9563;49.240;9.088;2022-08-21T02:05:03;10.50;;;3.15;;
18867;SDS011;9563;49.240;9.088;2022-08-21T02:07:35;4.47;;;3.17;;
18867;SDS011;9563;49.240;9.088;2022-08-21T02:10:05;5.30;;;2.78;;
18867;SDS011;9563;49.240;9.088;2022-08-21T02:12:33;5.45;;;3.10;;
18867;SDS011;9563;49.240;9.088;2022-08-21T02:15:02;6.40;;;3.28;;
18867;SDS011;9563;49.240;9.088;2022-08-21T02:17:36;5.60;;;3.28;;
18867;SDS011;9563;49.240;9.088;2022-08-21T02:20:05;4.53;;;2.90;;
18867;SDS011;9563;49.240;9.088;2022-08-21T02:22:33;7.53;;;3.10;;
18867;SDS011;9563;49.240;9.088;2022-08-21T02:25:00;6.28;;;3.15;;
18867;SDS011;9563;49.240;9.088;2022-08-21T02:27:27;5.78;;;3.42;;
18867;SDS011;9563;49.240;9.088;2022-08-21T02:29:54;8.40;;;3.20;;
18867;SDS011;9563;49.240;9.088;2022-08-21T02:32:24;4.60;;;3.10;;
18867;SDS011;9563;49.240;9.088;2022-08-21T02:34:52;7.75;;;3.67;;
18867;SDS011;9563;49.240;9.088;2022-08-21T02:37:19;5.68;;;3.38;;
18867;SDS011;9563;49.240;9.088;2022-08-21T02:39:46;4.15;;;3.00;;
18867;SDS011;9563;49.240;9.088;2022-08-21T02:42:13;7.05;;;3.40;;
18867;SDS011;9563;49.240;9.088;2022-08-21T02:44:40;4.75;;;3.22;;
18867;SDS011;9563;49.240;9.088;2022-08-21T02:47:07;6.03;;;2.95;;
18867;SDS011;9563;49.240;9.088;2022-08-21T02:49:35;7.03;;;3.38;;
18867;SDS011;9563;49.240;9.088;2022-08-21T02:52:02;5.72;;;3.10;;
18867;SDS011;9563;49.240;9.088;2022-08-21T02:54:30;5.50;;;3.00;;
18867;SDS011;9563;49.240;9.088;2022-08-21T02:56:58;4.15;;;2.85;;
18867;SDS011;9563;49.240;9.088;2022-08-21T02:59:24;4.57;;;3.38;;
18867;SDS011;9563;49.240;9.088;2022-08-21T03:01:51;4.43;;;2.80;;
18867;SDS011;9563;49.240;9.088;2022-08-21T03:04:19;7.47;;;3.72;;
18867;SDS011;9563;49.240;9.088;2022-08-21T03:06:47;4.40;;;2.85;;
18867;SDS011;9563;49.240;9.088;2022-08-21T03:09:14;7.93;;;3.50;;
18867;SDS011;9563;49.240;9.088;2022-08-21T03:11:41;6.88;;;3.05;;
18867;SDS011;9563;49.240;9.088;2022-08-21T03:14:08;6.63;;;3.45;;
18867;SDS011;9563;49.240;9.088;2022-08-21T03:16:35;11.27;;;3.35;;
18867;SDS011;9563;49.240;9.088;2022-08-21T03:19:02;7.40;;;2.83;;
18867;SDS011;9563;49.240;9.088;2022-08-21T03:21:29;4.80;;;3.42;;
18867;SDS011;9563;49.240;9.088;2022-08-21T03:23:58;6.65;;;3.03;;
18867;SDS011;9563;49.240;9.088;2022-08-21T03:26:25;7.00;;;3.08;;
18867;SDS011;9563;49.240;9.088;2022-08-21T03:28:51;4.97;;;3.30;;
18867;SDS011;9563;49.240;9.088;2022-08-21T03:31:18;3.88;;;3.20;;
18867;SDS011;9563;49.240;9.088;2022-08-21T03:33:46;8.95;;;3.60;;
18867;SDS011;9563;49.240;9.088;2022-08-21T03:36:13;4.15;;;3.00;;
18867;SDS011;9563;49.240;9.088;2022-08-21T03:38:41;4.55;;;3.47;;
18867;SDS011;9563;49.240;9.088;2022-08-21T03:41:10;4.80;;;3.35;;
18867;SDS011;9563;49.240;9.088;2022-08-21T03:43:37;5.25;;;3.22;;
18867;SDS011;9563;49.240;9.088;2022-08-21T03:46:04;7.25;;;3.58;;
18867;SDS011;9563;49.240;9.088;2022-08-21T03:48:33;7.68;;;3.50;;
18867;SDS011;9563;49.240;9.088;2022-08-21T03:51:00;8.75;;;3.22;;
18867;SDS011;9563;49.240;9.088;2022-08-21T03:53:28;6.13;;;2.90;;
18867;SDS011;9563;49.240;9.088;2022-08-21T03:55:55;3.90;;;3.17;;
18867;SDS011;9563;49.240;9.088;2022-08-21T03:58:25;4.93;;;2.97;;
18867;SDS011;9563;49.240;9.088;2022-08-21T04:00:55;4.45;;;3.03;;
18867;SDS011;9563;49.240;9.088;2022-08-21T04:03:24;6.57;;;3.53;;
18867;SDS011;9563;49.240;9.088;2022-08-21T04:05:52;5.15;;;3.00;;
18867;SDS011;9563;49.240;9.088;2022-08-21T04:08:19;8.82;;;3.60;;
18867;SDS011;9563;49.240;9.088;2022-08-21T04:10:47;4.45;;;3.08;;
18867;SDS011;9563;49.240;9.088;2022-08-21T04:13:16;5.68;;;3.35;;
18867;SDS011;9563;49.240;9.088;2022-08-21T04:15:44;6.65;;;3.50;;
18867;SDS011;9563;49.240;9.088;2022-08-21T04:18:11;6.63;;;3.55;;
18867;SDS011;9563;49.240;9.088;2022-08-21T04:20:39;5.82;;;3.60;;
18867;SDS011;9563;49.240;9.088;2022-08-21T04:23:08;9.27;;;4.35;;
18867;SDS011;9563;49.240;9.088;2022-08-21T04:25:34;6.75;;;3.83;;
18867;SDS011;9563;49.240;9.088;2022-08-21T04:28:02;6.07;;;3.40;;
18867;SDS011;9563;49.240;9.088;2022-08-21T04:30:29;8.20;;;3.75;;
18867;SDS011;9563;49.240;9.088;2022-08-21T04:32:58;6.82;;;3.50;;
18867;SDS011;9563;49.240;9.088;2022-08-21T04:35:26;5.47;;;3.50;;
18867;SDS011;9563;49.240;9.088;2022-08-21T04:37:53;5.35;;;3.50;;
18867;SDS011;9563;49.240;9.088;2022-08-21T04:40:21;8.35;;;3.50;;
18867;SDS011;9563;49.240;9.088;2022-08-21T04:42:50;6.32;;;3.90;;
18867;SDS011;9563;49.240;9.088;2022-08-21T04:45:19;6.43;;;3.95;;
18867;SDS011;9563;49.240;9.088;2022-08-21T04:47:48;7.13;;;3.30;;
18867;SDS011;9563;49.240;9.088;2022-08-21T04:50:17;19.02;;;4.18;;
18867;SDS011;9563;49.240;9.088;2022-08-21T04:52:44;5.93;;;3.55;;
18867;SDS011;9563;49.240;9.088;2022-08-21T04:55:13;6.68;;;3.17;;
18867;SDS011;9563;49.240;9.088;2022-08-21T04:57:40;6.65;;;3.55;;
18867;SDS011;9563;49.240;9.088;2022-08-21T05:00:08;4.88;;;3.42;;
18867;SDS011;9563;49.240;9.088;2022-08-21T05:02:38;11.13;;;4.07;;
18867;SDS011;9563;49.240;9.088;2022-08-21T05:05:06;6.75;;;3.67;;
18867;SDS011;9563;49.240;9.088;2022-08-21T05:07:35;7.70;;;3.58;;
18867;SDS011;9563;49.240;9.088;2022-08-21T05:10:03;7.68;;;3.40;;
18867;SDS011;9563;49.240;9.088;2022-08-21T05:12:32;6.43;;;3.75;;
18867;SDS011;9563;49.240;9.088;2022-08-21T05:15:00;6.22;;;3.25;;
18867;SDS011;9563;49.240;9.088;2022-08-21T05:17:28;7.95;;;3.72;;
18867;SDS011;9563;49.240;9.088;2022-08-21T05:19:55;5.80;;;3.28;;
18867;SDS011;9563;49.240;9.088;2022-08-21T05:22:22;6.25;;;3.80;;
18867;SDS011;9563;49.240;9.088;2022-08-21T05:24:52;7.00;;;3.92;;
18867;SDS011;9563;49.240;9.088;2022-08-21T05:27:19;6.43;;;3.78;;
18867;SDS011;9563;49.240;9.088;2022-08-21T05:29:46;5.78;;;4.03;;
18867;SDS011;9563;49.240;9.088;2022-08-21T05:32:13;7.38;;;3.95;;
18867;SDS011;9563;49.240;9.088;2022-08-21T05:34:40;10.60;;;4.32;;
18867;SDS011;9563;49.240;9.088;2022-08-21T05:37:09;7.30;;;3.95;;
18867;SDS011;9563;49.240;9.088;2022-08-21T05:39:37;8.70;;;4.03;;
18867;SDS011;9563;49.240;9.088;2022-08-21T05:42:06;6.30;;;3.72;;
18867;SDS011;9563;49.240;9.088;2022-08-21T05:44:35;7.15;;;3.78;;
18867;SDS011;9563;49.240;9.088;2022-08-21T05:47:03;7.18;;;4.20;;
18867;SDS011;9563;49.240;9.088;2022-08-21T05:49:31;9.27;;;4.30;;
18867;SDS011;9563;49.240;9.088;2022-08-21T05:51:58;6.97;;;3.70;;
18867;SDS011;9563;49.240;9.088;2022-08-21T05:54:25;6.40;;;4.45;;
18867;SDS011;9563;49.240;9.088;2022-08-21T05:56:52;5.72;;;4.30;;
18867;SDS011;9563;49.240;9.088;2022-08-21T05:59:21;6.95;;;4.40;;
18867;SDS011;9563;49.240;9.088;2022-08-21T06:01:48;8.35;;;4.88;;
18867;SDS011;9563;49.240;9.088;2022-08-21T06:04:17;13.95;;;4.32;;
18867;SDS011;9563;49.240;9.088;2022-08-21T06:06:45;5.32;;;3.67;;
18867;SDS011;9563;49.240;9.088;2022-08-21T06:09:13;9.15;;;3.85;;
18867;SDS011;9563;49.240;9.088;2022-08-21T06:11:41;9.20;;;3.92;;
18867;SDS011;9563;49.240;9.088;2022-08-21T06:14:08;6.20;;;3.47;;
18867;SDS011;9563;49.240;9.088;2022-08-21T06:16:36;5.20;;;3.50;;
18867;SDS011;9563;49.240;9.088;2022-08-21T06:19:03;10.68;;;4.03;;
18867;SDS011;9563;49.240;9.088;2022-08-21T06:21:30;5.10;;;3.80;;
18867;SDS011;9563;49.240;9.088;2022-08-21T06:23:57;5.32;;;3.17;;
18867;SDS011;9563;49.240;9.088;2022-08-21T06:26:24;4.82;;;3.25;;
18867;SDS011;9563;49.240;9.088;2022-08-21T06:28:51;6.10;;;3.42;;
18867;SDS011;9563;49.240;9.088;2022-08-21T06:31:20;7.18;;;2.83;;
18867;SDS011;9563;49.240;9.088;2022-08-21T06:33:50;6.18;;;3.13;;
18867;SDS011;9563;49.240;9.088;2022-08-21T06:36:17;5.53;;;3.17;;
18867;SDS011;9563;49.240;9.088;2022-08-21T06:38:45;8.60;;;3.50;;
18867;SDS011;9563;49.240;9.088;2022-08-21T06:41:13;5.70;;;3.00;;
18867;SDS011;9563;49.240;9.088;2022-08-21T06:43:40;8.60;;;4.10;;
18867;SDS011;9563;49.240;9.088;2022-08-21T06:46:07;5.25;;;2.97;;
18867;SDS011;9563;49.240;9.088;2022-08-21T06:48:34;7.90;;;3.42;;
18867;SDS011;9563;49.240;9.088;2022-08-21T06:51:03;11.35;;;4.38;;
18867;SDS011;9563;49.240;9.088;2022-08-21T06:53:30;9.77;;;3.42;;
18867;SDS011;9563;49.240;9.088;2022-08-21T06:55:57;10.48;;;3.67;;
18867;SDS011;9563;49.240;9.088;2022-08-21T06:58:25;8.48;;;3.50;;
18867;SDS011;9563;49.240;9.088;2022-08-21T07:00:52;7.18;;;3.72;;
18867;SDS011;9563;49.240;9.088;2022-08-21T07:03:20;8.82;;;3.47;;
18867;SDS011;9563;49.240;9.088;2022-08-21T07:05:50;8.63;;;3.22;;
18867;SDS011;9563;49.240;9.088;2022-08-21T07:08:19;8.38;;;3.85;;
18867;SDS011;9563;49.240;9.088;2022-08-21T07:10:47;9.23;;;3.70;;
18867;SDS011;9563;49.240;9.088;2022-08-21T07:13:15;9.07;;;3.55;;
18867;SDS011;9563;49.240;9.088;2022-08-21T07:15:42;6.43;;;3.92;;
18867;SDS011;9563;49.240;9.088;2022-08-21T07:18:09;9.60;;;3.00;;
18867;SDS011;9563;49.240;9.088;2022-08-21T07:20:36;12.30;;;3.75;;
18867;SDS011;9563;49.240;9.088;2022-08-21T07:23:05;9.25;;;3.50;;
18867;SDS011;9563;49.240;9.088;2022-08-21T07:25:37;8.23;;;3.65;;
18867;SDS011;9563;49.240;9.088;2022-08-21T07:28:04;8.35;;;3.72;;
18867;SDS011;9563;49.240;9.088;2022-08-21T07:30:31;9.52;;;3.45;;
18867;SDS011;9563;49.240;9.088;2022-08-21T07:32:58;7.88;;;2.95;;
18867;SDS011;9563;49.240;9.088;2022-08-21T07:35:25;7.00;;;3.20;;
18867;SDS011;9563;49.240;9.088;2022-08-21T07:37:53;5.80;;;3.20;;
18867;SDS011;9563;49.240;9.088;2022-08-21T07:40:20;7.32;;;3.38;;
18867;SDS011;9563;49.240;9.088;2022-08-21T07:42:48;8.02;;;3.67;;
18867;SDS011;9563;49.240;9.088;2022-08-21T07:45:17;14.95;;;4.25;;
18867;SDS011;9563;49.240;9.088;2022-08-21T07:47:45;8.52;;;3.53;;
18867;SDS011;9563;49.240;9.088;2022-08-21T07:50:13;7.55;;;3.60;;
18867;SDS011;9563;49.240;9.088;2022-08-21T07:52:41;7.57;;;3.50;;
18867;SDS011;9563;49.240;9.088;2022-08-21T07:55:10;13.35;;;4.10;;
18867;SDS011;9563;49.240;9.088;2022-08-21T07:57:40;12.35;;;3.83;;
18867;SDS011;9563;49.240;9.088;2022-08-21T08:00:10;9.68;;;4.00;;
18867;SDS011;9563;49.240;9.088;2022-08-21T08:02:40;9.05;;;3.13;;
18867;SDS011;9563;49.240;9.088;2022-08-21T08:05:10;7.00;;;3.55;;
18867;SDS011;9563;49.240;9.088;2022-08-21T08:07:38;10.85;;;3.40;;
18867;SDS011;9563;49.240;9.088;2022-08-21T08:10:06;8.60;;;3.40;;
18867;SDS011;9563;49.240;9.088;2022-08-21T08:12:34;7.68;;;3.50;;
18867;SDS011;9563;49.240;9.088;2022-08-21T08:15:01;8.70;;;3.83;;
18867;SDS011;9563;49.240;9.088;2022-08-21T08:17:30;9.45;;;3.65;;
18867;SDS011;9563;49.240;9.088;2022-08-21T08:19:57;9.68;;;3.63;;
18867;SDS011;9563;49.240;9.088;2022-08-21T08:22:25;10.98;;;3.92;;
18867;SDS011;9563;49.240;9.088;2022-08-21T08:24:53;8.85;;;3.40;;
18867;SDS011;9563;49.240;9.088;2022-08-21T08:27:21;8.93;;;3.50;;
18867;SDS011;9563;49.240;9.088;2022-08-21T08:29:49;13.52;;;3.70;;
18867;SDS011;9563;49.240;9.088;2022-08-21T08:32:16;11.18;;;3.70;;
18867;SDS011;9563;49.240;9.088;2022-08-21T08:34:45;12.82;;;4.03;;
18867;SDS011;9563;49.240;9.088;2022-08-21T08:37:13;10.75;;;5.10;;
18867;SDS011;9563;49.240;9.088;2022-08-21T08:39:41;6.93;;;3.60;;
18867;SDS011;9563;49.240;9.088;2022-08-21T08:42:09;6.22;;;3.53;;
18867;SDS011;9563;49.240;9.088;2022-08-21T08:44:39;7.38;;;3.15;;
18867;SDS011;9563;49.240;9.088;2022-08-21T08:47:07;5.60;;;3.88;;
18867;SDS011;9563;49.240;9.088;2022-08-21T08:49:37;7.63;;;3.58;;
18867;SDS011;9563;49.240;9.088;2022-08-21T08:52:17;7.70;;;3.40;;
18867;SDS011;9563;49.240;9.088;2022-08-21T08:54:50;7.05;;;3.97;;
18867;SDS011;9563;49.240;9.088;2022-08-21T08:57:22;7.47;;;4.10;;
18867;SDS011;9563;49.240;9.088;2022-08-21T08:59:52;9.60;;;4.05;;
18867;SDS011;9563;49.240;9.088;2022-08-21T09:02:23;8.15;;;4.65;;
18867;SDS011;9563;49.240;9.088;2022-08-21T09:04:52;6.63;;;3.60;;
18867;SDS011;9563;49.240;9.088;2022-08-21T09:07:28;7.03;;;3.55;;
18867;SDS011;9563;49.240;9.088;2022-08-21T09:10:04;8.27;;;3.75;;
18867;SDS011;9563;49.240;9.088;2022-08-21T09:12:39;8.15;;;3.67;;
18867;SDS011;9563;49.240;9.088;2022-08-21T09:15:15;9.32;;;3.92;;
18867;SDS011;9563;49.240;9.088;2022-08-21T09:17:55;6.43;;;3.70;;
18867;SDS011;9563;49.240;9.088;2022-08-21T09:20:37;6.35;;;3.17;;
18867;SDS011;9563;49.240;9.088;2022-08-21T09:23:11;7.35;;;2.80;;
18867;SDS011;9563;49.240;9.088;2022-08-21T09:25:50;9.18;;;3.63;;
18867;SDS011;9563;49.240;9.088;2022-08-21T09:28:24;6.03;;;3.50;;
18867;SDS011;9563;49.240;9.088;2022-08-21T09:30:53;9.25;;;3.50;;
18867;SDS011;9563;49.240;9.088;2022-08-21T09:33:27;6.63;;;3.20;;
18867;SDS011;9563;49.240;9.088;2022-08-21T09:35:55;6.72;;;3.17;;
18867;SDS011;9563;49.240;9.088;2022-08-21T09:38:27;6.05;;;2.88;;
18867;SDS011;9563;49.240;9.088;2022-08-21T09:40:59;6.95;;;3.20;;
18867;SDS011;9563;49.240;9.088;2022-08-21T09:43:28;8.25;;;3.20;;
18867;SDS011;9563;49.240;9.088;2022-08-21T09:46:03;9.02;;;3.17;;
18867;SDS011;9563;49.240;9.088;2022-08-21T09:48:45;7.25;;;3.10;;
18867;SDS011;9563;49.240;9.088;2022-08-21T09:51:14;4.47;;;2.72;;
18867;SDS011;9563;49.240;9.088;2022-08-21T09:53:45;6.15;;;3.03;;
18867;SDS011;9563;49.240;9.088;2022-08-21T09:56:17;6.85;;;3.40;;
18867;SDS011;9563;49.240;9.088;2022-08-21T09:59:12;9.95;;;3.75;;
18867;SDS011;9563;49.240;9.088;2022-08-21T10:01:45;7.80;;;3.03;;
18867;SDS011;9563;49.240;9.088;2022-08-21T10:04:14;8.18;;;3.33;;
18867;SDS011;9563;49.240;9.088;2022-08-21T10:06:45;7.90;;;3.42;;
18867;SDS011;9563;49.240;9.088;2022-08-21T10:09:15;6.93;;;3.20;;
18867;SDS011;9563;49.240;9.088;2022-08-21T10:11:43;6.63;;;2.97;;
18867;SDS011;9563;49.240;9.088;2022-08-21T10:14:18;7.72;;;3.55;;
18867;SDS011;9563;49.240;9.088;2022-08-21T10:16:55;8.30;;;3.40;;
18867;SDS011;9563;49.240;9.088;2022-08-21T10:19:30;5.28;;;3.20;;
18867;SDS011;9563;49.240;9.088;2022-08-21T10:22:07;8.30;;;3.40;;
18867;SDS011;9563;49.240;9.088;2022-08-21T10:24:48;10.80;;;3.20;;
18867;SDS011;9563;49.240;9.088;2022-08-21T10:27:21;8.45;;;3.08;;
18867;SDS011;9563;49.240;9.088;2022-08-21T10:29:57;8.98;;;3.35;;
18867;SDS011;9563;49.240;9.088;2022-08-21T10:32:36;6.40;;;3.42;;
18867;SDS011;9563;49.240;9.088;2022-08-21T10:35:33;5.72;;;2.95;;
18867;SDS011;9563;49.240;9.088;2022-08-21T10:41:18;7.50;;;3.53;;
18867;SDS011;9563;49.240;9.088;2022-08-21T10:43:55;9.00;;;3.30;;
18867;SDS011;9563;49.240;9.088;2022-08-21T10:46:34;7.65;;;3.03;;
18867;SDS011;9563;49.240;9.088;2022-08-21T10:49:14;6.45;;;3.10;;
18867;SDS011;9563;49.240;9.088;2022-08-21T10:51:51;8.00;;;2.83;;
18867;SDS011;9563;49.240;9.088;2022-08-21T10:54:26;5.65;;;2.85;;
18867;SDS011;9563;49.240;9.088;2022-08-21T10:57:05;7.82;;;3.28;;
18867;SDS011;9563;49.240;9.088;2022-08-21T10:59:38;6.63;;;2.70;;
18867;SDS011;9563;49.240;9.088;2022-08-21T11:02:11;7.68;;;2.70;;
18867;SDS011;9563;49.240;9.088;2022-08-21T11:04:47;3.58;;;2.45;;
18867;SDS011;9563;49.240;9.088;2022-08-21T11:07:20;8.88;;;2.95;;
18867;SDS011;9563;49.240;9.088;2022-08-21T11:09:51;4.72;;;2.60;;
18867;SDS011;9563;49.240;9.088;2022-08-21T11:12:27;14.95;;;2.92;;
18867;SDS011;9563;49.240;9.088;2022-08-21T11:15:00;5.65;;;2.40;;
18867;SDS011;9563;49.240;9.088;2022-08-21T11:17:34;7.00;;;3.13;;
18867;SDS011;9563;49.240;9.088;2022-08-21T11:20:09;7.18;;;2.65;;
18867;SDS011;9563;49.240;9.088;2022-08-21T11:22:40;13.15;;;3.20;;
18867;SDS011;9563;49.240;9.088;2022-08-21T11:25:14;8.30;;;2.88;;
18867;SDS011;9563;49.240;9.088;2022-08-21T11:27:49;8.45;;;2.83;;
18867;SDS011;9563;49.240;9.088;2022-08-21T11:30:20;6.30;;;2.80;;
18867;SDS011;9563;49.240;9.088;2022-08-21T11:32:52;5.95;;;2.30;;
18867;SDS011;9563;49.240;9.088;2022-08-21T11:35:32;7.18;;;2.70;;
18867;SDS011;9563;49.240;9.088;2022-08-21T11:38:08;4.68;;;2.53;;
18867;SDS011;9563;49.240;9.088;2022-08-21T11:40:54;5.15;;;2.42;;
18867;SDS011;9563;49.240;9.088;2022-08-21T11:43:34;8.82;;;2.95;;
18867;SDS011;9563;49.240;9.088;2022-08-21T11:46:09;6.78;;;2.40;;
18867;SDS011;9563;49.240;9.088;2022-08-21T11:48:45;6.80;;;2.95;;
18867;SDS011;9563;49.240;9.088;2022-08-21T11:51:21;7.82;;;2.78;;
18867;SDS011;9563;49.240;9.088;2022-08-21T11:53:55;5.65;;;2.58;;
18867;SDS011;9563;49.240;9.088;2022-08-21T11:56:31;6.15;;;2.72;;
18867;SDS011;9563;49.240;9.088;2022-08-21T11:59:06;7.43;;;2.58;;
18867;SDS011;9563;49.240;9.088;2022-08-21T12:01:39;6.57;;;2.70;;
18867;SDS011;9563;49.240;9.088;2022-08-21T12:04:15;5.20;;;2.50;;
18867;SDS011;9563;49.240;9.088;2022-08-21T12:06:44;4.20;;;2.45;;
18867;SDS011;9563;49.240;9.088;2022-08-21T12:09:27;6.88;;;2.90;;
18867;SDS011;9563;49.240;9.088;2022-08-21T12:12:00;4.30;;;2.28;;
18867;SDS011;9563;49.240;9.088;2022-08-21T12:14:37;8.55;;;2.92;;
18867;SDS011;9563;49.240;9.088;2022-08-21T12:17:07;5.30;;;2.78;;
18867;SDS011;9563;49.240;9.088;2022-08-21T12:19:42;8.80;;;3.22;;
18867;SDS011;9563;49.240;9.088;2022-08-21T12:22:12;4.43;;;2.38;;
18867;SDS011;9563;49.240;9.088;2022-08-21T12:24:41;7.00;;;2.60;;
18867;SDS011;9563;49.240;9.088;2022-08-21T12:27:18;5.15;;;2.33;;
18867;SDS011;9563;49.240;9.088;2022-08-21T12:29:54;6.75;;;2.88;;
18867;SDS011;9563;49.240;9.088;2022-08-21T12:32:26;7.43;;;2.78;;
18867;SDS011;9563;49.240;9.088;2022-08-21T12:34:55;10.10;;;2.63;;
18867;SDS011;9563;49.240;9.088;2022-08-21T12:37:34;5.88;;;2.40;;
18867;SDS011;9563;49.240;9.088;2022-08-21T12:40:10;7.43;;;2.53;;
18867;SDS011;9563;49.240;9.088;2022-08-21T12:42:44;4.38;;;2.25;;
18867;SDS011;9563;49.240;9.088;2022-08-21T12:45:18;10.35;;;3.00;;
18867;SDS011;9563;49.240;9.088;2022-08-21T12:47:50;4.80;;;2.33;;
18867;SDS011;9563;49.240;9.088;2022-08-21T12:50:24;4.68;;;2.50;;
18867;SDS011;9563;49.240;9.088;2022-08-21T12:52:59;6.60;;;2.75;;
18867;SDS011;9563;49.240;9.088;2022-08-21T12:55:31;7.88;;;2.30;;
18867;SDS011;9563;49.240;9.088;2022-08-21T12:58:00;5.65;;;2.60;;
18867;SDS011;9563;49.240;9.088;2022-08-21T13:00:29;6.13;;;2.35;;
18867;SDS011;9563;49.240;9.088;2022-08-21T13:02:56;7.35;;;2.83;;
18867;SDS011;9563;49.240;9.088;2022-08-21T13:05:27;5.07;;;2.60;;
18867;SDS011;9563;49.240;9.088;2022-08-21T13:07:57;4.20;;;2.28;;
18867;SDS011;9563;49.240;9.088;2022-08-21T13:10:27;5.90;;;2.40;;
18867;SDS011;9563;49.240;9.088;2022-08-21T13:12:57;4.38;;;2.28;;
18867;SDS011;9563;49.240;9.088;2022-08-21T13:15:27;5.63;;;2.20;;
18867;SDS011;9563;49.240;9.088;2022-08-21T13:17:58;4.03;;;2.40;;
18867;SDS011;9563;49.240;9.088;2022-08-21T13:20:29;5.07;;;2.40;;
18867;SDS011;9563;49.240;9.088;2022-08-21T13:22:59;8.00;;;2.40;;
18867;SDS011;9563;49.240;9.088;2022-08-21T13:25:28;5.57;;;2.38;;
18867;SDS011;9563;49.240;9.088;2022-08-21T13:28:03;7.30;;;2.42;;
18867;SDS011;9563;49.240;9.088;2022-08-21T13:30:34;5.55;;;2.78;;
18867;SDS011;9563;49.240;9.088;2022-08-21T13:33:05;4.55;;;2.20;;
18867;SDS011;9563;49.240;9.088;2022-08-21T13:35:35;7.85;;;2.85;;
18867;SDS011;9563;49.240;9.088;2022-08-21T13:38:13;4.75;;;2.33;;
18867;SDS011;9563;49.240;9.088;2022-08-21T13:40:42;6.13;;;2.50;;
18867;SDS011;9563;49.240;9.088;2022-08-21T13:43:12;4.30;;;2.17;;
18867;SDS011;9563;49.240;9.088;2022-08-21T13:45:46;5.82;;;2.53;;
18867;SDS011;9563;49.240;9.088;2022-08-21T13:48:16;4.85;;;2.22;;
18867;SDS011;9563;49.240;9.088;2022-08-21T13:50:44;8.25;;;2.65;;
18867;SDS011;9563;49.240;9.088;2022-08-21T13:53:20;5.43;;;2.40;;
18867;SDS011;9563;49.240;9.088;2022-08-21T13:55:49;5.57;;;2.00;;
18867;SDS011;9563;49.240;9.088;2022-08-21T13:58:23;3.75;;;2.30;;
18867;SDS011;9563;49.240;9.088;2022-08-21T14:00:53;5.03;;;2.33;;
18867;SDS011;9563;49.240;9.088;2022-08-21T14:03:31;5.93;;;2.17;;
18867;SDS011;9563;49.240;9.088;2022-08-21T14:06:00;7.10;;;2.85;;
18867;SDS011;9563;49.240;9.088;2022-08-21T14:08:30;3.08;;;1.83;;
18867;SDS011;9563;49.240;9.088;2022-08-21T14:11:00;4.38;;;2.10;;
18867;SDS011;9563;49.240;9.088;2022-08-21T14:13:33;5.07;;;2.65;;
18867;SDS011;9563;49.240;9.088;2022-08-21T14:16:20;4.25;;;2.33;;
18867;SDS011;9563;49.240;9.088;2022-08-21T14:18:52;5.82;;;2.78;;
18867;SDS011;9563;49.240;9.088;2022-08-21T14:21:35;4.82;;;2.50;;
18867;SDS011;9563;49.240;9.088;2022-08-21T14:24:05;4.78;;;2.58;;
18867;SDS011;9563;49.240;9.088;2022-08-21T14:26:35;5.40;;;2.75;;
18867;SDS011;9563;49.240;9.088;2022-08-21T14:29:09;4.53;;;2.35;;
18867;SDS011;9563;49.240;9.088;2022-08-21T14:31:40;5.53;;;2.55;;
18867;SDS011;9563;49.240;9.088;2022-08-21T14:34:07;10.60;;;2.33;;
18867;SDS011;9563;49.240;9.088;2022-08-21T14:36:38;5.15;;;2.95;;
18867;SDS011;9563;49.240;9.088;2022-08-21T14:39:05;5.18;;;2.13;;
18867;SDS011;9563;49.240;9.088;2022-08-21T14:41:32;5.05;;;2.10;;
18867;SDS011;9563;49.240;9.088;2022-08-21T14:43:59;3.70;;;2.33;;
18867;SDS011;9563;49.240;9.088;2022-08-21T14:46:27;4.15;;;2.20;;
18867;SDS011;9563;49.240;9.088;2022-08-21T14:48:58;6.00;;;2.22;;
18867;SDS011;9563;49.240;9.088;2022-08-21T14:51:25;5.45;;;2.55;;
18867;SDS011;9563;49.240;9.088;2022-08-21T14:53:52;4.72;;;2.50;;
18867;SDS011;9563;49.240;9.088;2022-08-21T14:56:19;4.63;;;2.30;;
18867;SDS011;9563;49.240;9.088;2022-08-21T14:58:48;5.70;;;2.47;;
18867;SDS011;9563;49.240;9.088;2022-08-21T15:01:16;4.53;;;2.00;;
18867;SDS011;9563;49.240;9.088;2022-08-21T15:03:45;6.78;;;2.58;;
18867;SDS011;9563;49.240;9.088;2022-08-21T15:06:15;3.47;;;1.95;;
18867;SDS011;9563;49.240;9.088;2022-08-21T15:08:43;6.18;;;2.22;;
18867;SDS011;9563;49.240;9.088;2022-08-21T15:11:11;3.90;;;2.33;;
18867;SDS011;9563;49.240;9.088;2022-08-21T15:13:41;4.65;;;2.20;;
18867;SDS011;9563;49.240;9.088;2022-08-21T15:16:09;3.83;;;2.40;;
18867;SDS011;9563;49.240;9.088;2022-08-21T15:18:37;5.03;;;2.35;;
18867;SDS011;9563;49.240;9.088;2022-08-21T15:21:05;3.53;;;2.17;;